createdAt,value
2023-05-19T00:00:35.178Z,85818.50
2023-05-19T00:03:01.384Z,85815.59
2023-05-19T00:05:27.611Z,85817.81
2023-05-19T00:07:53.768Z,85828.25
2023-05-19T00:10:19.942Z,85824.06
2023-05-19T00:12:46.120Z,85822.53
2023-05-19T00:15:12.250Z,85824.56
2023-05-19T00:17:38.484Z,85819.00
2023-05-19T00:20:04.672Z,85805.75
2023-05-19T00:22:30.808Z,85806.03
2023-05-19T00:24:56.939Z,85811.72
2023-05-19T00:27:23.077Z,85800.03
2023-05-19T00:29:49.234Z,85801.91
2023-05-19T00:32:15.418Z,85792.38
2023-05-19T00:34:41.568Z,85795.47
2023-05-19T00:37:07.752Z,85799.53
2023-05-19T00:39:33.916Z,85797.16
2023-05-19T00:42:00.090Z,85794.50
2023-05-19T00:44:26.266Z,85791.88
2023-05-19T00:46:52.474Z,85790.78
2023-05-19T00:49:18.694Z,85794.44
2023-05-19T00:51:44.824Z,85798.03
2023-05-19T00:54:10.982Z,85800.31
2023-05-19T00:56:37.144Z,85803.63
2023-05-19T00:59:03.305Z,85805.50
2023-05-19T01:01:29.548Z,85804.72
2023-05-19T01:03:55.998Z,85802.81
2023-05-19T01:06:22.300Z,85801.38
2023-05-19T01:08:48.503Z,85807.09
2023-05-19T01:11:14.647Z,85798.00
2023-05-19T01:13:42.256Z,85798.69
2023-05-19T01:16:08.589Z,85794.34
2023-05-19T01:18:34.758Z,85803.78
2023-05-19T01:21:00.928Z,85796.59
2023-05-19T01:23:27.118Z,85805.56
2023-05-19T01:25:53.267Z,85805.56
2023-05-19T01:28:19.458Z,85804.69
2023-05-19T01:30:45.604Z,85811.38
2023-05-19T01:33:11.845Z,85796.72
2023-05-19T01:35:38.036Z,85808.50
2023-05-19T01:38:04.188Z,85807.16
2023-05-19T01:40:30.541Z,85810.28
2023-05-19T01:42:57.709Z,85806.66
2023-05-19T01:45:24.141Z,85805.91
2023-05-19T01:47:50.322Z,85801.22
2023-05-19T01:50:16.470Z,85799.00
2023-05-19T01:52:42.625Z,85801.59
2023-05-19T01:55:08.794Z,85801.09
2023-05-19T01:57:34.957Z,85799.38
2023-05-19T02:00:01.091Z,85795.09
2023-05-19T02:02:27.261Z,85791.31
2023-05-19T02:04:53.438Z,85785.66
2023-05-19T02:07:19.598Z,85789.88
2023-05-19T02:09:45.747Z,85779.84
2023-05-19T02:12:11.893Z,85785.31
2023-05-19T02:14:38.033Z,85784.19
2023-05-19T02:17:04.187Z,85783.38
2023-05-19T02:19:30.359Z,85782.00
2023-05-19T02:21:56.525Z,85775.97
2023-05-19T02:24:22.733Z,85777.72
2023-05-19T02:26:48.887Z,85781.88
2023-05-19T02:29:15.048Z,85773.94
2023-05-19T02:31:41.240Z,85774.47
2023-05-19T02:34:07.414Z,85762.84
2023-05-19T02:36:33.572Z,85767.72
2023-05-19T02:38:59.708Z,85765.25
2023-05-19T02:41:25.837Z,85757.41
2023-05-19T02:43:52.017Z,85763.28
2023-05-19T02:46:18.229Z,85762.31
2023-05-19T02:48:44.431Z,85758.03
2023-05-19T02:51:11.650Z,85760.16
2023-05-19T02:53:37.817Z,85760.34
2023-05-19T02:56:03.948Z,85752.50
2023-05-19T02:58:30.084Z,85758.81
2023-05-19T03:00:56.237Z,85761.00
2023-05-19T03:03:22.454Z,85761.13
2023-05-19T03:05:48.644Z,85758.47
2023-05-19T03:08:14.797Z,85755.94
2023-05-19T03:10:40.948Z,85756.41
2023-05-19T03:13:07.129Z,85759.19
2023-05-19T03:15:33.294Z,85747.66
2023-05-19T03:17:59.543Z,85750.63
2023-05-19T03:20:25.706Z,85744.63
2023-05-19T03:22:51.862Z,85739.56
2023-05-19T03:25:18.006Z,85741.94
2023-05-19T03:27:44.151Z,85739.56
2023-05-19T03:30:10.311Z,85741.75
2023-05-19T03:32:36.565Z,85740.28
2023-05-19T03:35:02.770Z,85732.19
2023-05-19T03:37:28.969Z,85738.13
2023-05-19T03:39:55.152Z,85741.91
2023-05-19T03:42:21.313Z,85741.97
2023-05-19T03:44:47.492Z,85740.66
2023-05-19T03:47:13.635Z,85735.66
2023-05-19T03:49:39.790Z,85738.78
2023-05-19T03:52:05.912Z,85747.22
2023-05-19T03:54:32.069Z,85745.53
2023-05-19T03:56:58.219Z,85744.13
2023-05-19T03:59:24.354Z,85752.19
2023-05-19T04:01:50.523Z,85746.47
2023-05-19T04:04:16.680Z,85745.56
2023-05-19T04:06:42.852Z,85754.16
2023-05-19T04:09:09.000Z,85757.56
2023-05-19T04:11:35.149Z,85757.63
2023-05-19T04:14:01.298Z,85766.16
2023-05-19T04:16:27.563Z,85762.63
2023-05-19T04:18:53.793Z,85770.38
2023-05-19T04:21:19.964Z,85764.34
2023-05-19T04:23:46.112Z,85758.44
2023-05-19T04:26:12.318Z,85767.66
2023-05-19T04:28:38.504Z,85772.28
2023-05-19T04:31:04.724Z,85770.88
2023-05-19T04:33:30.907Z,85781.50
2023-05-19T04:35:57.088Z,85768.47
2023-05-19T04:38:23.231Z,85769.44
2023-05-19T04:40:49.469Z,85772.88
2023-05-19T04:43:15.598Z,85766.63
2023-05-19T04:45:41.757Z,85769.00
2023-05-19T04:48:07.963Z,85766.59
2023-05-19T04:50:34.517Z,85770.38
2023-05-19T04:53:00.802Z,85775.88
2023-05-19T04:55:26.938Z,85781.59
2023-05-19T04:57:53.086Z,85772.94
2023-05-19T05:00:19.227Z,85780.63
2023-05-19T05:02:45.479Z,85770.84
2023-05-19T05:05:11.812Z,85775.03
2023-05-19T05:07:38.012Z,85773.09
2023-05-19T05:10:04.157Z,85766.97
2023-05-19T05:12:30.785Z,85770.25
2023-05-19T05:14:56.958Z,85770.03
2023-05-19T05:17:23.122Z,85774.00
2023-05-19T05:19:49.291Z,85771.53
2023-05-19T05:22:15.451Z,85766.03
2023-05-19T05:24:41.638Z,85770.13
2023-05-19T05:27:07.796Z,85767.00
2023-05-19T05:29:33.949Z,85775.22
2023-05-19T05:32:00.177Z,85772.28
2023-05-19T05:34:26.377Z,85767.38
2023-05-19T05:36:52.520Z,85765.53
2023-05-19T05:39:18.684Z,85766.66
2023-05-19T05:41:44.831Z,85764.97
2023-05-19T05:44:10.984Z,85766.38
2023-05-19T05:46:37.160Z,85760.03
2023-05-19T05:49:03.360Z,85753.28
2023-05-19T05:51:29.507Z,85747.97
2023-05-19T05:53:55.677Z,85750.38
2023-05-19T05:56:21.843Z,85752.78
2023-05-19T05:58:47.995Z,85749.50
2023-05-19T06:01:14.157Z,85747.66
2023-05-19T06:03:40.388Z,85751.28
2023-05-19T06:06:06.552Z,85747.22
2023-05-19T06:08:32.716Z,85755.25
2023-05-19T06:10:58.877Z,85752.53
2023-05-19T06:13:25.037Z,85740.69
2023-05-19T06:15:51.237Z,85746.81
2023-05-19T06:18:17.431Z,85747.22
2023-05-19T06:20:43.586Z,85741.53
2023-05-19T06:23:09.755Z,85737.09
2023-05-19T06:25:35.891Z,85741.69
2023-05-19T06:28:02.173Z,85737.06
2023-05-19T06:30:28.326Z,85738.28
2023-05-19T06:32:54.486Z,85740.09
2023-05-19T06:35:20.668Z,85729.25
2023-05-19T06:37:46.825Z,85726.09
2023-05-19T06:40:12.987Z,85729.22
2023-05-19T06:42:39.128Z,85719.53
2023-05-19T06:45:05.293Z,85729.97
2023-05-19T06:47:31.454Z,85728.22
2023-05-19T06:49:57.932Z,85726.06
2023-05-19T06:52:24.066Z,85729.81
2023-05-19T06:54:50.358Z,85729.53
2023-05-19T06:57:16.522Z,85731.03
2023-05-19T06:59:42.662Z,85740.78
2023-05-19T07:02:08.893Z,85734.31
2023-05-19T07:04:35.161Z,85737.56
2023-05-19T07:07:01.321Z,85742.53
2023-05-19T07:09:27.800Z,85739.94
2023-05-19T07:11:53.956Z,85744.56
2023-05-19T07:14:20.086Z,85748.78
2023-05-19T07:16:46.308Z,85749.28
2023-05-19T07:19:12.666Z,85747.47
2023-05-19T07:21:38.846Z,85749.03
2023-05-19T07:24:05.005Z,85744.66
2023-05-19T07:26:31.142Z,85742.47
2023-05-19T07:28:57.312Z,85745.56
2023-05-19T07:31:23.555Z,85738.28
2023-05-19T07:33:50.735Z,85743.22
2023-05-19T07:36:17.797Z,85735.69
2023-05-19T07:38:43.987Z,85738.03
2023-05-19T07:41:10.217Z,85732.84
2023-05-19T07:43:36.365Z,85729.09
2023-05-19T07:46:02.585Z,85733.31
2023-05-19T07:48:28.737Z,85726.09
2023-05-19T07:50:54.900Z,85722.25
2023-05-19T07:53:21.263Z,85722.34
2023-05-19T07:55:47.506Z,85722.88
2023-05-19T07:58:13.648Z,85724.88
2023-05-19T08:00:39.774Z,85721.16
2023-05-19T08:03:06.097Z,85717.13
2023-05-19T08:05:32.437Z,85718.19
2023-05-19T08:07:58.577Z,85716.78
2023-05-19T08:10:24.809Z,85715.88
2023-05-19T08:12:51.034Z,85717.03
2023-05-19T08:15:17.191Z,85716.69
2023-05-19T08:17:43.397Z,85718.34
2023-05-19T08:20:09.619Z,85711.94
2023-05-19T08:22:35.766Z,85707.69
2023-05-19T08:25:01.933Z,85718.78
2023-05-19T08:27:28.086Z,85717.41
2023-05-19T08:29:54.235Z,85710.59
2023-05-19T08:32:20.389Z,85714.16
2023-05-19T08:34:46.526Z,85713.69
2023-05-19T08:37:12.685Z,85717.22
2023-05-19T08:39:38.819Z,85720.03
2023-05-19T08:42:04.946Z,85714.00
2023-05-19T08:44:31.175Z,85709.41
2023-05-19T08:46:57.386Z,85706.97
2023-05-19T08:49:25.493Z,85708.94
2023-05-19T08:51:51.868Z,85701.56
2023-05-19T08:54:18.017Z,85698.09
2023-05-19T08:56:44.201Z,85698.66
2023-05-19T08:59:10.337Z,85696.75
2023-05-19T09:04:03.720Z,85697.94
2023-05-19T09:06:30.123Z,85700.09
2023-05-19T09:08:56.287Z,85693.59
2023-05-19T09:11:22.814Z,85690.91
2023-05-19T09:13:48.995Z,85685.94
2023-05-19T09:16:15.160Z,85687.78
2023-05-19T09:18:41.367Z,85683.09
2023-05-19T09:21:07.596Z,85680.81
2023-05-19T09:23:33.887Z,85676.28
2023-05-19T09:26:00.099Z,85679.31
2023-05-19T09:28:26.290Z,85672.25
2023-05-19T09:30:52.440Z,85665.88
2023-05-19T09:33:18.635Z,85666.59
2023-05-19T09:35:44.839Z,85665.00
2023-05-19T09:38:10.991Z,85665.19
2023-05-19T09:40:37.124Z,85664.63
2023-05-19T09:43:03.285Z,85664.78
2023-05-19T09:45:29.466Z,85661.75
2023-05-19T09:47:55.658Z,85656.59
2023-05-19T09:50:21.828Z,85655.84
2023-05-19T09:52:48.253Z,85652.31
2023-05-19T09:55:14.425Z,85658.72
2023-05-19T09:57:40.594Z,85658.84
2023-05-19T10:00:06.738Z,85652.63
2023-05-19T10:02:32.893Z,85654.31
2023-05-19T10:04:59.085Z,85656.56
2023-05-19T10:07:25.250Z,85665.38
2023-05-19T10:09:51.446Z,85663.28
2023-05-19T10:12:17.607Z,85652.13
2023-05-19T10:14:43.893Z,85647.22
2023-05-19T10:17:10.057Z,85659.38
2023-05-19T10:19:36.230Z,85653.19
2023-05-19T10:22:02.447Z,85656.53
2023-05-19T10:24:28.610Z,85648.75
2023-05-19T10:26:54.758Z,85655.81
2023-05-19T10:29:20.918Z,85648.94
2023-05-19T10:31:47.133Z,85644.66
2023-05-19T10:34:13.303Z,85645.56
2023-05-19T10:36:39.449Z,85650.16
2023-05-19T10:39:05.633Z,85644.03
2023-05-19T10:41:31.788Z,85652.47
2023-05-19T10:43:58.541Z,85648.91
2023-05-19T10:46:24.750Z,85649.78
2023-05-19T10:48:50.962Z,85654.78
2023-05-19T10:51:17.271Z,85646.72
2023-05-19T10:53:43.537Z,85653.94
2023-05-19T10:56:09.677Z,85644.44
2023-05-19T10:58:35.843Z,85648.00
2023-05-19T11:01:02.024Z,85651.50
2023-05-19T11:03:28.182Z,85642.72
2023-05-19T11:05:54.368Z,85646.50
2023-05-19T11:08:20.500Z,85652.03
2023-05-19T11:10:46.684Z,85644.22
2023-05-19T11:13:12.839Z,85646.44
2023-05-19T11:15:38.978Z,85630.88
2023-05-19T11:18:05.328Z,85633.53
2023-05-19T11:20:31.512Z,85632.84
2023-05-19T11:22:57.683Z,85627.88
2023-05-19T11:25:23.872Z,85633.56
2023-05-19T11:27:50.012Z,85636.88
2023-05-19T11:30:16.169Z,85629.84
2023-05-19T11:32:42.387Z,85630.56
2023-05-19T11:35:08.557Z,85632.69
2023-05-19T11:37:34.748Z,85629.28
2023-05-19T11:40:00.986Z,85622.44
2023-05-19T11:42:27.440Z,85630.91
2023-05-19T11:44:53.587Z,85619.25
2023-05-19T11:47:19.726Z,85623.13
2023-05-19T11:49:45.882Z,85622.25
2023-05-19T11:52:12.104Z,85621.88
2023-05-19T11:54:38.240Z,85625.78
2023-05-19T11:57:04.396Z,85622.59
2023-05-19T11:59:30.958Z,85617.47
2023-05-19T12:01:57.565Z,85622.97
2023-05-19T12:04:23.717Z,85614.50
2023-05-19T12:06:49.904Z,85621.38
2023-05-19T12:09:16.068Z,85616.56
2023-05-19T12:11:42.321Z,85619.00
2023-05-19T12:14:08.502Z,85617.13
2023-05-19T12:16:34.780Z,85619.25
2023-05-19T12:19:01.032Z,85613.59
2023-05-19T12:21:33.636Z,85608.88
2023-05-19T12:24:00.496Z,85621.88
2023-05-19T12:26:26.655Z,85614.84
2023-05-19T12:28:52.821Z,85610.59
2023-05-19T12:31:19.010Z,85617.13
2023-05-19T12:33:45.154Z,85610.97
2023-05-19T12:36:11.319Z,85600.00
2023-05-19T12:38:37.480Z,85609.53
2023-05-19T12:41:03.631Z,85612.19
2023-05-19T12:43:29.808Z,85608.28
2023-05-19T12:45:56.032Z,85601.59
2023-05-19T12:48:22.199Z,85604.94
2023-05-19T12:50:48.356Z,85615.88
2023-05-19T12:53:14.620Z,85602.25
2023-05-19T12:55:40.815Z,85606.47
2023-05-19T12:58:06.973Z,85610.66
2023-05-19T13:00:33.397Z,85611.59
2023-05-19T13:03:00.257Z,85610.00
2023-05-19T13:05:26.803Z,85615.72
2023-05-19T13:07:53.000Z,85610.09
2023-05-19T13:10:19.149Z,85605.69
2023-05-19T13:12:45.304Z,85603.78
2023-05-19T13:15:11.437Z,85600.84
2023-05-19T13:17:37.625Z,85609.56
2023-05-19T13:20:03.764Z,85602.69
2023-05-19T13:22:29.921Z,85606.06
2023-05-19T13:24:56.066Z,85606.56
2023-05-19T13:27:22.230Z,85615.81
2023-05-19T13:29:48.373Z,85616.09
2023-05-19T13:32:14.523Z,85610.56
2023-05-19T13:34:40.760Z,85611.63
2023-05-19T13:37:07.665Z,85614.66
2023-05-19T13:39:34.009Z,85606.19
2023-05-19T13:42:00.209Z,85605.03
2023-05-19T13:44:26.348Z,85607.00
2023-05-19T13:46:52.548Z,85609.06
2023-05-19T13:49:18.859Z,85607.97
2023-05-19T13:51:45.008Z,85600.72
2023-05-19T13:54:11.162Z,85603.53
2023-05-19T13:56:37.304Z,85608.84
2023-05-19T13:59:03.456Z,85604.28
2023-05-19T14:01:29.632Z,85601.78
2023-05-19T14:03:55.872Z,85610.25
2023-05-19T14:06:22.171Z,85607.38
2023-05-19T14:08:48.316Z,85609.56
2023-05-19T14:11:14.491Z,85608.50
2023-05-19T14:13:43.250Z,85606.88
2023-05-19T14:16:09.684Z,85601.59
2023-05-19T14:18:35.913Z,85603.53
2023-05-19T14:21:02.062Z,85601.91
2023-05-19T14:23:28.228Z,85599.22
2023-05-19T14:25:54.381Z,85600.69
2023-05-19T14:28:20.518Z,85601.91
2023-05-19T14:30:47.244Z,85597.13
2023-05-19T14:33:13.573Z,85595.63
2023-05-19T14:35:39.795Z,85605.47
2023-05-19T14:38:05.969Z,85604.78
2023-05-19T14:40:32.228Z,85597.72
2023-05-19T14:42:58.576Z,85598.06
2023-05-19T14:45:24.717Z,85601.00
2023-05-19T14:47:50.901Z,85587.38
2023-05-19T14:50:17.074Z,85584.50
2023-05-19T14:52:43.248Z,85590.22
2023-05-19T14:55:11.554Z,85580.19
2023-05-19T14:57:37.705Z,85585.38
2023-05-19T15:00:03.856Z,85577.34
2023-05-19T15:02:30.161Z,85584.47
2023-05-19T15:04:56.397Z,85580.25
2023-05-19T15:07:22.542Z,85581.81
2023-05-19T15:09:48.670Z,85583.22
2023-05-19T15:12:14.814Z,85578.47
2023-05-19T15:14:40.972Z,85573.88
2023-05-19T15:17:07.197Z,85581.63
2023-05-19T15:19:33.504Z,85584.28
2023-05-19T15:21:59.748Z,85573.69
2023-05-19T15:24:25.889Z,85573.53
2023-05-19T15:26:52.053Z,85572.53
2023-05-19T15:29:18.224Z,85567.88
2023-05-19T15:31:44.507Z,85563.28
2023-05-19T15:34:10.770Z,85567.47
2023-05-19T15:36:36.919Z,85566.47
2023-05-19T15:39:03.084Z,85569.28
2023-05-19T15:41:29.223Z,85564.53
2023-05-19T15:43:55.371Z,85558.72
2023-05-19T15:46:21.542Z,85562.34
2023-05-19T15:48:47.845Z,85566.22
2023-05-19T15:51:14.015Z,85561.63
2023-05-19T15:53:40.157Z,85559.28
2023-05-19T15:56:06.306Z,85559.53
2023-05-19T15:58:32.474Z,85564.13
2023-05-19T16:00:58.646Z,85560.72
2023-05-19T16:03:24.883Z,85561.53
2023-05-19T16:05:51.111Z,85557.13
2023-05-19T16:08:17.339Z,85564.38
2023-05-19T16:10:43.486Z,85568.38
2023-05-19T16:13:09.677Z,85564.50
2023-05-19T16:15:35.846Z,85564.69
2023-05-19T16:18:02.009Z,85567.19
2023-05-19T16:20:28.231Z,85564.72
2023-05-19T16:22:54.419Z,85559.06
2023-05-19T16:25:20.566Z,85562.38
2023-05-19T16:27:46.728Z,85562.94
2023-05-19T16:30:12.876Z,85557.97
2023-05-19T16:32:39.075Z,85553.56
2023-05-19T16:35:05.263Z,85556.50
2023-05-19T16:37:31.540Z,85550.00
2023-05-19T16:39:57.703Z,85550.69
2023-05-19T16:42:23.840Z,85549.97
2023-05-19T16:44:50.006Z,85556.50
2023-05-19T16:47:16.144Z,85553.50
2023-05-19T16:49:42.470Z,85553.84
2023-05-19T16:52:08.602Z,85561.44
2023-05-19T16:54:34.748Z,85556.50
2023-05-19T16:57:00.932Z,85549.13
2023-05-19T16:59:27.081Z,85546.06
2023-05-19T17:01:53.250Z,85551.72
2023-05-19T17:04:19.404Z,85550.91
2023-05-19T17:06:45.563Z,85555.16
2023-05-19T17:09:11.704Z,85550.91
2023-05-19T17:11:37.854Z,85553.41
2023-05-19T17:14:04.033Z,85557.81
2023-05-19T17:16:30.197Z,85554.97
2023-05-19T17:18:56.420Z,85558.69
2023-05-19T17:21:22.600Z,85558.16
2023-05-19T17:23:48.768Z,85557.28
2023-05-19T17:26:14.941Z,85551.28
2023-05-19T17:28:41.091Z,85557.09
2023-05-19T17:31:07.233Z,85562.56
2023-05-19T17:33:33.422Z,85564.94
2023-05-19T17:35:59.578Z,85575.59
2023-05-19T17:38:25.741Z,85570.81
2023-05-19T17:40:51.877Z,85573.47
2023-05-19T17:43:18.028Z,85573.44
2023-05-19T17:45:44.190Z,85585.25
2023-05-19T17:48:10.480Z,85584.03
2023-05-19T17:50:36.670Z,85588.16
2023-05-19T17:53:02.833Z,85585.16
2023-05-19T17:55:28.995Z,85585.09
2023-05-19T17:57:55.133Z,85589.75
2023-05-19T18:00:21.276Z,85593.75
2023-05-19T18:02:47.473Z,85583.31
2023-05-19T18:05:13.672Z,85590.69
2023-05-19T18:07:39.801Z,85596.63
2023-05-19T18:10:06.005Z,85586.06
2023-05-19T18:12:32.160Z,85587.03
2023-05-19T18:14:58.285Z,85590.66
2023-05-19T18:17:24.427Z,85590.41
2023-05-19T18:19:50.594Z,85592.69
2023-05-19T18:22:16.845Z,85595.25
2023-05-19T18:24:43.007Z,85593.31
2023-05-19T18:27:09.190Z,85596.72
2023-05-19T18:29:35.361Z,85600.28
2023-05-19T18:32:01.642Z,85595.56
2023-05-19T18:34:27.838Z,85595.69
2023-05-19T18:36:53.973Z,85602.31
2023-05-19T18:39:20.112Z,85605.25
2023-05-19T18:41:46.330Z,85603.34
2023-05-19T18:44:12.482Z,85609.19
2023-05-19T18:46:38.786Z,85605.25
2023-05-19T18:49:04.954Z,85613.50
2023-05-19T18:51:31.093Z,85609.75
2023-05-19T18:53:57.219Z,85610.09
2023-05-19T18:56:23.435Z,85619.38
2023-05-19T18:58:49.576Z,85618.66
2023-05-19T19:01:15.765Z,85619.38
2023-05-19T19:03:41.975Z,85615.06
2023-05-19T19:06:08.117Z,85632.56
2023-05-19T19:08:34.264Z,85633.91
2023-05-19T19:11:00.396Z,85633.91
2023-05-19T19:13:26.531Z,85632.47
2023-05-19T19:15:52.677Z,85630.72
2023-05-19T19:18:18.818Z,85639.13
2023-05-19T19:20:44.979Z,85641.31
2023-05-19T19:23:11.155Z,85640.97
2023-05-19T19:25:37.350Z,85640.97
2023-05-19T19:28:03.488Z,85640.53
2023-05-19T19:30:29.638Z,85635.50
2023-05-19T19:32:55.800Z,85637.41
2023-05-19T19:35:21.964Z,85640.38
2023-05-19T19:37:48.255Z,85643.03
2023-05-19T19:40:14.389Z,85645.72
2023-05-19T19:42:40.536Z,85642.97
2023-05-19T19:45:06.705Z,85645.28
2023-05-19T19:47:32.902Z,85651.63
2023-05-19T19:49:59.137Z,85642.50
2023-05-19T19:52:25.295Z,85649.84
2023-05-19T19:54:51.452Z,85652.88
2023-05-19T19:57:17.594Z,85650.00
2023-05-19T19:59:43.766Z,85642.47
2023-05-19T20:02:10.109Z,85644.19
2023-05-19T20:04:36.541Z,85648.75
2023-05-19T20:07:02.759Z,85651.84
2023-05-19T20:09:28.911Z,85650.88
2023-05-19T20:11:55.043Z,85647.59
2023-05-19T20:14:21.328Z,85657.41
2023-05-19T20:16:47.494Z,85664.28
2023-05-19T20:19:13.678Z,85657.19
2023-05-19T20:21:39.893Z,85665.66
2023-05-19T20:24:06.047Z,85664.88
2023-05-19T20:26:32.251Z,85676.88
2023-05-19T20:28:58.416Z,85671.53
2023-05-19T20:31:24.706Z,85675.75
2023-05-19T20:33:50.884Z,85681.41
2023-05-19T20:36:17.037Z,85677.66
2023-05-19T20:38:43.344Z,85664.97
2023-05-19T20:41:09.520Z,85677.94
2023-05-19T20:43:35.656Z,85674.63
2023-05-19T20:46:01.842Z,85669.03
2023-05-19T20:48:28.049Z,85679.09
2023-05-19T20:50:54.254Z,85682.56
2023-05-19T20:53:20.457Z,85684.91
2023-05-19T20:55:46.611Z,85684.75
2023-05-19T20:58:12.778Z,85690.75
2023-05-19T21:00:38.921Z,85686.66
2023-05-19T21:03:05.141Z,85687.16
2023-05-19T21:05:31.449Z,85689.22
2023-05-19T21:07:57.660Z,85685.41
2023-05-19T21:10:23.805Z,85688.44
2023-05-19T21:12:49.954Z,85686.41
2023-05-19T21:15:16.124Z,85685.59
2023-05-19T21:17:42.450Z,85692.28
2023-05-19T21:20:08.676Z,85687.00
2023-05-19T21:22:34.852Z,85684.69
2023-05-19T21:25:00.987Z,85684.28
2023-05-19T21:27:27.187Z,85676.28
2023-05-19T21:29:53.335Z,85686.22
2023-05-19T21:32:19.811Z,85682.03
2023-05-19T21:34:46.003Z,85687.63
2023-05-19T21:37:12.156Z,85693.09
2023-05-19T21:39:38.337Z,85685.63
2023-05-19T21:42:04.484Z,85678.72
2023-05-19T21:44:30.630Z,85682.56
2023-05-19T21:46:56.885Z,85684.59
2023-05-19T21:49:23.068Z,85679.81
2023-05-19T21:51:49.240Z,85690.28
2023-05-19T21:54:15.386Z,85685.22
2023-05-19T21:56:41.533Z,85684.09
2023-05-19T21:59:07.712Z,85684.28
2023-05-19T22:01:33.908Z,85675.78
2023-05-19T22:04:00.254Z,85680.16
2023-05-19T22:06:26.551Z,85678.38
2023-05-19T22:08:52.719Z,85671.19
2023-05-19T22:11:18.886Z,85678.63
2023-05-19T22:13:45.047Z,85676.56
2023-05-19T22:16:11.253Z,85675.66
2023-05-19T22:18:37.411Z,85674.25
2023-05-19T22:21:03.588Z,85673.75
2023-05-19T22:23:29.810Z,85663.72
2023-05-19T22:25:55.965Z,85662.72
2023-05-19T22:28:22.184Z,85657.63
2023-05-19T22:30:48.325Z,85653.09
2023-05-19T22:33:14.450Z,85667.47
2023-05-19T22:35:40.618Z,85673.16
2023-05-19T22:38:08.867Z,85673.16
2023-05-19T22:40:36.681Z,85668.28
2023-05-19T22:43:02.998Z,85668.47
2023-05-19T22:45:29.174Z,85678.72
2023-05-19T22:47:55.443Z,85681.03
2023-05-19T22:50:21.612Z,85682.66
2023-05-19T22:52:47.845Z,85673.47
2023-05-19T22:55:14.002Z,85673.66
2023-05-19T22:57:40.147Z,85674.88
2023-05-19T23:00:06.326Z,85675.28
2023-05-19T23:02:32.516Z,85679.22
2023-05-19T23:04:58.665Z,85674.16
2023-05-19T23:07:24.809Z,85668.09
2023-05-19T23:09:50.983Z,85668.66
2023-05-19T23:12:17.116Z,85668.09
2023-05-19T23:14:43.272Z,85668.78
2023-05-19T23:17:09.456Z,85667.75
2023-05-19T23:19:35.682Z,85657.84
2023-05-19T23:22:01.810Z,85661.19
2023-05-19T23:24:27.957Z,85665.13
2023-05-19T23:26:54.106Z,85664.56
2023-05-19T23:29:20.237Z,85663.00
2023-05-19T23:31:46.460Z,85660.97
2023-05-19T23:34:12.671Z,85657.03
2023-05-19T23:36:38.840Z,85653.78
2023-05-19T23:39:04.985Z,85655.28
2023-05-19T23:41:31.136Z,85654.19
2023-05-19T23:43:57.305Z,85652.47
2023-05-19T23:46:23.567Z,85648.13
2023-05-19T23:48:49.797Z,85652.06
2023-05-19T23:51:15.947Z,85645.56
2023-05-19T23:53:42.122Z,85652.28
2023-05-19T23:56:08.291Z,85645.78
2023-05-19T23:58:34.467Z,85651.16
